createdAt,value
2023-03-05T00:00:05.418Z,2.57
2023-03-05T00:05:14.897Z,2.37
2023-03-05T00:10:16.496Z,2.73
2023-03-05T00:15:18.182Z,2.33
2023-03-05T00:20:20.019Z,2.40
2023-03-05T00:25:22.531Z,2.43
2023-03-05T00:30:24.180Z,2.73
2023-03-05T00:35:26.609Z,2.80
2023-03-05T00:40:29.027Z,2.30
2023-03-05T00:45:30.858Z,2.53
2023-03-05T00:50:32.436Z,2.73
2023-03-05T00:55:36.074Z,2.63
2023-03-05T01:00:38.023Z,2.40
2023-03-05T01:05:40.217Z,2.60
2023-03-05T01:10:41.946Z,2.40
2023-03-05T01:15:43.751Z,2.40
2023-03-05T01:20:45.602Z,3.40
2023-03-05T01:25:56.672Z,2.80
2023-03-05T01:30:58.371Z,2.50
2023-03-05T01:36:00.006Z,2.67
2023-03-05T01:41:01.691Z,2.57
2023-03-05T01:46:39.969Z,2.80
2023-03-05T01:51:47.826Z,2.60
2023-03-05T01:56:50.659Z,2.13
2023-03-05T02:01:55.269Z,2.33
2023-03-05T02:06:57.004Z,2.40
2023-03-05T02:11:58.949Z,2.30
2023-03-05T02:17:00.666Z,2.20
2023-03-05T02:22:02.238Z,2.10
2023-03-05T02:27:05.068Z,2.77
2023-03-05T02:32:07.102Z,2.33
2023-03-05T02:37:10.288Z,2.00
2023-03-05T02:42:13.092Z,2.93
2023-03-05T02:47:15.152Z,2.10
2023-03-05T02:52:17.401Z,2.23
2023-03-05T02:57:19.693Z,2.23
2023-03-05T03:02:21.823Z,2.00
2023-03-05T03:07:23.815Z,2.30
2023-03-05T03:12:25.498Z,2.30
2023-03-05T03:17:27.093Z,2.07
2023-03-05T03:22:28.887Z,2.17
2023-03-05T03:27:30.516Z,1.67
2023-03-05T03:33:00.796Z,2.27
2023-03-05T03:38:27.349Z,2.10
2023-03-05T03:43:54.757Z,2.13
2023-03-05T03:48:57.350Z,2.27
2023-03-05T03:54:00.039Z,2.23
2023-03-05T03:59:01.598Z,2.40
2023-03-05T04:04:03.750Z,2.13
2023-03-05T04:09:06.058Z,2.30
2023-03-05T04:14:07.698Z,2.23
2023-03-05T04:19:09.397Z,2.20
2023-03-05T04:24:11.084Z,2.20
2023-03-05T04:29:13.304Z,2.40
2023-03-05T04:34:14.921Z,2.00
2023-03-05T04:39:16.519Z,2.50
2023-03-05T04:44:19.202Z,2.40
2023-03-05T04:49:21.952Z,2.67
2023-03-05T04:59:47.618Z,2.37
2023-03-05T05:04:52.916Z,2.40
2023-03-05T05:09:54.449Z,2.37
2023-03-05T05:14:57.671Z,2.43
2023-03-05T05:20:00.512Z,2.57
2023-03-05T05:25:02.284Z,2.90
2023-03-05T05:30:04.208Z,2.37
2023-03-05T05:35:06.508Z,2.30
2023-03-05T05:40:09.509Z,2.30
2023-03-05T05:45:12.031Z,2.60
2023-03-05T05:50:14.459Z,2.73
2023-03-05T05:55:16.127Z,2.30
2023-03-05T06:00:18.154Z,2.40
2023-03-05T06:05:19.807Z,2.60
2023-03-05T06:10:21.928Z,2.67
2023-03-05T06:15:23.548Z,2.50
2023-03-05T06:20:25.568Z,2.10
2023-03-05T06:25:27.201Z,2.40
2023-03-05T06:30:28.908Z,1.90
2023-03-05T06:35:30.540Z,2.57
2023-03-05T06:40:32.336Z,2.30
2023-03-05T06:45:34.067Z,2.50
2023-03-05T06:50:36.967Z,2.53
2023-03-05T06:55:39.784Z,2.50
2023-03-05T07:00:41.541Z,2.43
2023-03-05T07:05:43.810Z,2.30
2023-03-05T07:10:45.378Z,2.20
2023-03-05T07:15:47.011Z,2.70
2023-03-05T07:20:48.629Z,2.60
2023-03-05T07:25:50.412Z,2.33
2023-03-05T07:31:06.565Z,2.10
2023-03-05T07:36:09.137Z,2.07
2023-03-05T07:41:13.858Z,2.50
2023-03-05T07:46:17.643Z,2.70
2023-03-05T07:51:20.419Z,2.43
2023-03-05T07:56:28.944Z,2.30
2023-03-05T08:01:31.667Z,2.40
2023-03-05T08:06:33.317Z,2.70
2023-03-05T08:11:34.913Z,2.40
2023-03-05T08:16:36.681Z,2.63
2023-03-05T08:21:38.788Z,2.63
2023-03-05T08:26:41.142Z,3.23
2023-03-05T08:31:46.139Z,3.73
2023-03-05T08:36:48.097Z,4.00
2023-03-05T08:41:49.779Z,2.97
2023-03-05T08:46:51.490Z,3.00
2023-03-05T08:51:53.146Z,3.53
2023-03-05T08:56:54.910Z,2.80
2023-03-05T09:02:00.672Z,2.63
2023-03-05T09:07:02.283Z,2.93
2023-03-05T09:12:04.097Z,3.73
2023-03-05T09:17:05.665Z,2.60
2023-03-05T09:22:07.200Z,3.27
2023-03-05T09:27:08.880Z,3.07
2023-03-05T09:32:10.778Z,3.70
2023-03-05T09:37:12.773Z,3.73
2023-03-05T09:42:54.539Z,4.67
2023-03-05T09:48:11.041Z,3.23
2023-03-05T09:53:38.933Z,3.23
2023-03-05T09:58:47.393Z,3.47
2023-03-05T10:03:58.528Z,3.37
2023-03-05T10:09:12.002Z,3.73
2023-03-05T10:14:27.218Z,3.20
2023-03-05T10:19:47.671Z,2.90
2023-03-05T10:25:04.196Z,3.00
2023-03-05T10:30:27.616Z,2.93
2023-03-05T10:35:43.174Z,3.30
2023-03-05T10:41:00.973Z,2.80
2023-03-05T10:46:03.960Z,2.47
2023-03-05T10:51:08.614Z,2.63
2023-03-05T10:56:11.694Z,2.70
2023-03-05T11:01:13.144Z,2.70
2023-03-05T11:06:15.057Z,2.57
2023-03-05T11:11:21.120Z,2.50
2023-03-05T11:16:26.101Z,2.50
2023-03-05T11:21:28.557Z,3.07
2023-03-05T11:26:30.330Z,2.90
2023-03-05T11:31:33.507Z,2.90
2023-03-05T11:36:40.086Z,3.13
2023-03-05T11:42:00.575Z,4.33
2023-03-05T11:47:09.632Z,3.70
2023-03-05T11:52:27.066Z,3.73
2023-03-05T11:57:33.618Z,4.13
2023-03-05T12:02:35.345Z,4.70
2023-03-05T12:07:40.830Z,4.30
2023-03-05T12:13:03.863Z,4.17
2023-03-05T12:18:20.264Z,4.20
2023-03-05T12:23:22.199Z,4.67
2023-03-05T12:28:35.768Z,4.87
2023-03-05T12:33:43.828Z,5.57
2023-03-05T12:38:51.899Z,4.80
2023-03-05T12:44:05.329Z,4.10
2023-03-05T12:49:19.154Z,4.30
2023-03-05T12:54:39.851Z,4.97
2023-03-05T12:59:50.472Z,4.37
2023-03-05T13:04:53.535Z,4.30
2023-03-05T13:09:57.295Z,4.50
2023-03-05T13:14:59.736Z,4.70
2023-03-05T13:20:06.176Z,4.67
2023-03-05T13:25:15.517Z,4.63
2023-03-05T13:30:25.068Z,4.43
2023-03-05T13:35:26.755Z,4.73
2023-03-05T13:40:31.474Z,4.50
2023-03-05T13:45:33.177Z,4.77
2023-03-05T13:50:37.625Z,4.73
2023-03-05T13:55:39.369Z,5.10
2023-03-05T14:00:41.268Z,5.83
2023-03-05T14:05:44.349Z,5.20
2023-03-05T14:10:46.043Z,5.07
2023-03-05T14:16:06.573Z,5.70
2023-03-05T14:21:10.598Z,5.20
2023-03-05T14:26:35.154Z,5.40
2023-03-05T14:31:50.085Z,4.73
2023-03-05T14:36:53.285Z,5.33
2023-03-05T14:41:54.943Z,5.20
2023-03-05T14:46:56.489Z,4.80
2023-03-05T14:51:58.121Z,5.93
2023-03-05T14:56:59.661Z,5.40
2023-03-05T15:02:01.319Z,4.87
2023-03-05T15:07:04.021Z,5.07
2023-03-05T15:12:05.794Z,6.07
2023-03-05T15:17:10.142Z,5.80
2023-03-05T15:22:12.038Z,5.70
2023-03-05T15:27:14.725Z,4.87
2023-03-05T15:32:16.606Z,5.50
2023-03-05T15:37:18.185Z,6.23
2023-03-05T15:42:19.728Z,5.83
2023-03-05T15:47:21.273Z,6.60
2023-03-05T15:52:22.999Z,7.07
2023-03-05T15:57:24.624Z,6.40
2023-03-05T16:02:26.418Z,6.00
2023-03-05T16:07:28.152Z,7.70
2023-03-05T16:12:37.386Z,6.80
2023-03-05T16:17:41.747Z,6.83
2023-03-05T16:22:43.728Z,6.80
2023-03-05T16:27:45.579Z,6.53
2023-03-05T16:32:47.179Z,6.90
2023-03-05T16:37:48.767Z,6.73
2023-03-05T16:42:50.396Z,6.47
2023-03-05T16:47:52.895Z,8.40
2023-03-05T16:52:54.733Z,7.03
2023-03-05T16:57:56.360Z,6.63
2023-03-05T17:02:57.956Z,8.07
2023-03-05T17:08:02.129Z,7.80
2023-03-05T17:13:03.853Z,8.43
2023-03-05T17:18:05.748Z,7.47
2023-03-05T17:23:07.534Z,7.63
2023-03-05T17:28:09.101Z,7.73
2023-03-05T17:33:11.329Z,7.97
2023-03-05T17:38:13.498Z,8.10
2023-03-05T17:43:15.262Z,8.00
2023-03-05T17:48:16.766Z,9.23
2023-03-05T17:53:18.300Z,9.53
2023-03-05T17:58:19.902Z,10.00
2023-03-05T18:03:21.552Z,8.90
2023-03-05T18:08:23.234Z,9.73
2023-03-05T18:13:24.824Z,10.10
2023-03-05T18:18:26.718Z,9.03
2023-03-05T18:23:28.524Z,10.30
2023-03-05T18:28:30.032Z,9.83
2023-03-05T18:33:32.733Z,9.30
2023-03-05T18:38:34.975Z,10.53
2023-03-05T18:43:36.658Z,9.60
2023-03-05T18:48:38.267Z,9.70
2023-03-05T18:53:39.865Z,9.00
2023-03-05T18:58:41.523Z,7.77
2023-03-05T19:03:44.117Z,7.97
2023-03-05T19:08:46.083Z,9.03
2023-03-05T19:13:52.463Z,9.37
2023-03-05T19:19:05.185Z,10.13
2023-03-05T19:24:07.482Z,9.77
2023-03-05T19:29:10.044Z,10.30
2023-03-05T19:34:11.583Z,9.10
2023-03-05T19:39:13.260Z,9.03
2023-03-05T19:44:15.047Z,7.77
2023-03-05T19:49:17.656Z,7.13
2023-03-05T19:54:20.711Z,6.50
2023-03-05T19:59:23.288Z,6.90
2023-03-05T20:04:24.972Z,6.40
2023-03-05T20:09:26.592Z,6.60
2023-03-05T20:14:28.206Z,5.97
2023-03-05T20:19:29.802Z,5.57
2023-03-05T20:24:31.660Z,5.90
2023-03-05T20:35:56.843Z,5.53
2023-03-05T20:41:01.122Z,5.83
2023-03-05T20:46:03.645Z,5.77
2023-03-05T20:51:19.076Z,6.27
2023-03-05T20:56:20.687Z,6.30
2023-03-05T21:01:22.490Z,6.67
2023-03-05T21:06:25.164Z,6.67
2023-03-05T21:11:27.237Z,7.17
2023-03-05T21:16:28.896Z,7.20
2023-03-05T21:21:31.557Z,7.03
2023-03-05T21:26:33.622Z,7.33
2023-03-05T21:31:37.473Z,6.53
2023-03-05T21:36:39.387Z,8.13
2023-03-05T21:41:40.982Z,7.10
2023-03-05T21:46:43.578Z,7.53
2023-03-05T21:52:00.965Z,6.93
2023-03-05T21:57:02.587Z,6.20
2023-03-05T22:02:04.214Z,7.57
2023-03-05T22:07:06.574Z,7.53
2023-03-05T22:12:10.170Z,6.77
2023-03-05T22:17:11.846Z,7.57
2023-03-05T22:22:13.418Z,7.60
2023-03-05T22:27:14.961Z,7.27
2023-03-05T22:32:16.600Z,7.03
2023-03-05T22:37:18.169Z,7.47
2023-03-05T22:43:16.452Z,6.80
2023-03-05T22:48:17.941Z,7.40
2023-03-05T22:53:19.495Z,7.33
2023-03-05T22:58:21.238Z,7.97
2023-03-05T23:03:22.843Z,7.13
2023-03-05T23:08:24.541Z,7.60
2023-03-05T23:14:22.830Z,7.43
2023-03-05T23:26:11.574Z,6.37
2023-03-05T23:31:13.135Z,7.73
2023-03-05T23:36:14.778Z,7.27
2023-03-05T23:41:16.340Z,8.73
2023-03-05T23:46:17.870Z,8.70
2023-03-05T23:51:21.255Z,8.10
2023-03-05T23:56:22.790Z,7.70
